createdAt,value
2023-01-30T00:01:04.646Z,99030.75
2023-01-30T00:03:31.690Z,99036.84
2023-01-30T00:05:58.728Z,99017.09
2023-01-30T00:08:25.712Z,99007.41
2023-01-30T00:10:52.774Z,99006.63
2023-01-30T00:13:19.831Z,99006.66
2023-01-30T00:15:48.605Z,99002.31
2023-01-30T00:18:15.631Z,98996.41
2023-01-30T00:20:42.569Z,98999.03
2023-01-30T00:23:09.570Z,99010.22
2023-01-30T00:25:36.717Z,99003.31
2023-01-30T00:28:03.878Z,98993.88
2023-01-30T00:30:31.338Z,98984.44
2023-01-30T00:32:59.682Z,98977.34
2023-01-30T00:35:30.197Z,98981.00
2023-01-30T00:37:58.717Z,98972.19
2023-01-30T00:40:27.781Z,98982.44
2023-01-30T00:43:13.945Z,98977.41
2023-01-30T00:46:04.228Z,98987.03
2023-01-30T00:48:31.863Z,99007.63
2023-01-30T00:50:58.926Z,99006.72
2023-01-30T00:53:25.972Z,99012.81
2023-01-30T00:55:54.546Z,99019.72
2023-01-30T00:58:22.924Z,99026.63
2023-01-30T01:00:51.106Z,99042.09
2023-01-30T01:03:19.135Z,99048.03
2023-01-30T01:05:46.472Z,99046.88
2023-01-30T01:08:14.320Z,99054.66
2023-01-30T01:10:41.427Z,99055.66
2023-01-30T01:13:10.472Z,99050.50
2023-01-30T01:15:38.135Z,99052.25
2023-01-30T01:18:06.026Z,99051.38
2023-01-30T01:20:33.087Z,99055.66
2023-01-30T01:23:00.168Z,99062.47
2023-01-30T01:25:27.319Z,99051.09
2023-01-30T01:27:55.608Z,99055.34
2023-01-30T01:30:22.999Z,99062.13
2023-01-30T01:32:50.063Z,99069.81
2023-01-30T01:35:19.688Z,99065.50
2023-01-30T01:37:47.270Z,99062.94
2023-01-30T01:40:38.190Z,99063.78
2023-01-30T01:43:24.841Z,99055.09
2023-01-30T01:46:22.922Z,99047.44
2023-01-30T01:48:54.796Z,99059.41
2023-01-30T01:51:47.688Z,99043.81
2023-01-30T01:54:27.314Z,99033.41
2023-01-30T01:56:54.540Z,99038.53
2023-01-30T01:59:35.378Z,99038.50
2023-01-30T02:02:09.776Z,99049.63
2023-01-30T02:04:59.702Z,99048.66
2023-01-30T02:07:29.686Z,99024.53
2023-01-30T02:09:57.547Z,99027.97
2023-01-30T02:12:25.766Z,99027.06
2023-01-30T02:14:56.457Z,99022.69
2023-01-30T02:17:24.436Z,99015.69
2023-01-30T02:20:07.298Z,99015.66
2023-01-30T02:23:16.308Z,99017.28
2023-01-30T02:26:04.975Z,98997.34
2023-01-30T02:29:05.236Z,98974.03
2023-01-30T02:32:23.791Z,98985.22
2023-01-30T02:35:03.236Z,98982.56
2023-01-30T02:38:03.300Z,98970.38
2023-01-30T02:41:07.627Z,98976.34
2023-01-30T02:43:57.258Z,98938.00
2023-01-30T02:46:51.600Z,98951.50
2023-01-30T02:49:27.750Z,98959.19
2023-01-30T02:51:56.779Z,98973.81
2023-01-30T02:54:24.320Z,98967.41
2023-01-30T02:56:56.800Z,98953.53
2023-01-30T02:59:39.620Z,98964.59
2023-01-30T03:02:31.197Z,98964.56
2023-01-30T03:05:32.457Z,98946.16
2023-01-30T03:08:14.537Z,98945.41
2023-01-30T03:10:59.048Z,98942.66
2023-01-30T03:13:43.403Z,98918.50
2023-01-30T03:16:18.330Z,98906.25
2023-01-30T03:18:47.240Z,98901.94
2023-01-30T03:21:16.952Z,98894.94
2023-01-30T03:23:47.611Z,98882.81
2023-01-30T03:26:20.936Z,98849.06
2023-01-30T03:28:50.626Z,98844.78
2023-01-30T03:31:18.545Z,98846.47
2023-01-30T03:33:46.286Z,98848.31
2023-01-30T03:36:13.977Z,98855.19
2023-01-30T03:38:41.497Z,98847.16
2023-01-30T03:41:09.119Z,98859.22
2023-01-30T03:43:36.471Z,98866.88
2023-01-30T03:46:05.991Z,98871.09
2023-01-30T03:48:33.027Z,98862.31
2023-01-30T03:51:00.111Z,98870.19
2023-01-30T03:53:27.092Z,98859.00
2023-01-30T03:55:54.472Z,98863.31
2023-01-30T03:58:26.956Z,98858.97
2023-01-30T04:00:57.478Z,98854.38
2023-01-30T04:03:26.069Z,98855.31
2023-01-30T04:05:57.534Z,98868.16
2023-01-30T04:08:24.979Z,98875.59
2023-01-30T04:10:52.992Z,98880.75
2023-01-30T04:13:20.079Z,98875.28
2023-01-30T04:15:47.425Z,98869.31
2023-01-30T04:18:34.641Z,98869.78
2023-01-30T04:21:13.245Z,98860.88
2023-01-30T04:23:40.757Z,98864.09
2023-01-30T04:26:09.095Z,98871.63
2023-01-30T04:28:38.697Z,98865.50
2023-01-30T04:31:06.517Z,98866.44
2023-01-30T04:33:41.372Z,98867.31
2023-01-30T04:36:10.726Z,98871.53
2023-01-30T04:38:38.424Z,98862.50
2023-01-30T04:41:06.332Z,98861.78
2023-01-30T04:43:36.102Z,98862.44
2023-01-30T04:46:11.997Z,98863.19
2023-01-30T04:48:39.979Z,98868.34
2023-01-30T04:51:07.429Z,98862.97
2023-01-30T04:53:37.651Z,98870.63
2023-01-30T04:56:05.501Z,98875.81
2023-01-30T04:58:32.843Z,98867.22
2023-01-30T05:01:21.761Z,98867.44
2023-01-30T05:03:53.100Z,98858.41
2023-01-30T05:06:21.789Z,98850.59
2023-01-30T05:08:55.121Z,98858.13
2023-01-30T05:11:25.106Z,98848.84
2023-01-30T05:13:52.468Z,98853.69
2023-01-30T05:16:20.423Z,98845.28
2023-01-30T05:18:47.575Z,98843.53
2023-01-30T05:21:18.419Z,98846.03
2023-01-30T05:23:45.543Z,98840.75
2023-01-30T05:26:13.928Z,98846.00
2023-01-30T05:28:42.505Z,98846.00
2023-01-30T05:31:14.318Z,98828.31
2023-01-30T05:33:41.598Z,98826.47
2023-01-30T05:36:14.904Z,98822.19
2023-01-30T05:38:44.547Z,98824.00
2023-01-30T05:41:14.016Z,98831.28
2023-01-30T05:43:41.057Z,98834.44
2023-01-30T05:46:12.359Z,98824.78
2023-01-30T05:48:39.577Z,98820.34
2023-01-30T05:51:06.979Z,98819.69
2023-01-30T05:53:35.089Z,98824.00
2023-01-30T05:56:05.550Z,98823.03
2023-01-30T05:58:33.473Z,98817.97
2023-01-30T06:01:05.981Z,98809.06
2023-01-30T06:03:33.383Z,98800.72
2023-01-30T06:06:03.107Z,98812.00
2023-01-30T06:08:30.926Z,98796.41
2023-01-30T06:11:11.492Z,98798.19
2023-01-30T06:13:39.216Z,98798.19
2023-01-30T06:16:08.478Z,98783.41
2023-01-30T06:18:36.147Z,98778.03
2023-01-30T06:21:03.110Z,98779.69
2023-01-30T06:23:30.661Z,98789.28
2023-01-30T06:25:58.163Z,98802.91
2023-01-30T06:28:26.176Z,98808.31
2023-01-30T06:30:54.198Z,98812.84
2023-01-30T06:33:21.463Z,98798.69
2023-01-30T06:35:50.217Z,98793.44
2023-01-30T06:38:18.445Z,98786.56
2023-01-30T06:40:48.519Z,98793.13
2023-01-30T06:43:16.203Z,98791.47
2023-01-30T06:45:43.345Z,98801.69
2023-01-30T06:48:10.481Z,98801.47
2023-01-30T06:50:37.550Z,98809.38
2023-01-30T06:53:07.311Z,98797.97
2023-01-30T06:55:36.359Z,98798.03
2023-01-30T06:58:11.509Z,98801.44
2023-01-30T07:00:40.822Z,98807.47
2023-01-30T07:03:16.493Z,98804.78
2023-01-30T07:05:46.521Z,98813.88
2023-01-30T07:08:15.015Z,98806.88
2023-01-30T07:10:43.108Z,98809.69
2023-01-30T07:13:10.307Z,98816.53
2023-01-30T07:15:38.631Z,98822.56
2023-01-30T07:18:05.708Z,98832.03
2023-01-30T07:20:32.849Z,98831.19
2023-01-30T07:23:00.088Z,98833.59
2023-01-30T07:25:28.847Z,98842.31
2023-01-30T07:28:02.828Z,98844.66
2023-01-30T07:30:32.688Z,98850.56
2023-01-30T07:33:00.729Z,98848.22
2023-01-30T07:35:32.243Z,98839.50
2023-01-30T07:37:59.208Z,98840.38
2023-01-30T07:40:26.865Z,98840.16
2023-01-30T07:43:09.716Z,98850.63
2023-01-30T07:45:36.648Z,98837.09
2023-01-30T07:48:03.864Z,98832.72
2023-01-30T07:50:30.882Z,98833.59
2023-01-30T07:52:57.922Z,98836.03
2023-01-30T07:55:25.088Z,98822.16
2023-01-30T07:57:52.003Z,98828.94
2023-01-30T08:00:19.730Z,98827.28
2023-01-30T08:02:46.963Z,98822.69
2023-01-30T08:05:14.008Z,98826.06
2023-01-30T08:07:41.023Z,98828.66
2023-01-30T08:10:11.689Z,98827.59
2023-01-30T08:12:40.936Z,98835.50
2023-01-30T08:15:11.288Z,98845.91
2023-01-30T08:17:38.283Z,98850.06
2023-01-30T08:20:06.034Z,98820.78
2023-01-30T08:22:33.067Z,98796.78
2023-01-30T08:25:00.579Z,98777.22
2023-01-30T08:27:27.631Z,98792.66
2023-01-30T08:29:54.644Z,98799.56
2023-01-30T08:32:21.984Z,98765.88
2023-01-30T08:34:48.995Z,98764.19
2023-01-30T08:37:15.979Z,98744.94
2023-01-30T08:39:42.902Z,98762.03
2023-01-30T08:42:09.851Z,98768.88
2023-01-30T08:44:36.834Z,98787.50
2023-01-30T08:47:03.765Z,98784.41
2023-01-30T08:49:30.794Z,98773.22
2023-01-30T08:51:57.820Z,98785.09
2023-01-30T08:54:24.851Z,98770.81
2023-01-30T08:56:51.850Z,98770.41
2023-01-30T08:59:18.840Z,98759.59
2023-01-30T09:01:45.822Z,98752.41
2023-01-30T09:04:12.836Z,98738.66
2023-01-30T09:06:39.812Z,98738.44
2023-01-30T09:09:06.913Z,98736.59
2023-01-30T09:11:33.903Z,98732.41
2023-01-30T09:14:00.828Z,98728.66
2023-01-30T09:16:27.918Z,98745.75
2023-01-30T09:18:54.908Z,98737.66
2023-01-30T09:21:22.127Z,98734.41
2023-01-30T09:23:49.005Z,98745.47
2023-01-30T09:26:16.458Z,98736.97
2023-01-30T09:28:43.451Z,98731.59
2023-01-30T09:31:10.545Z,98739.59
2023-01-30T09:33:37.559Z,98743.31
2023-01-30T09:36:05.227Z,98734.59
2023-01-30T09:38:32.205Z,98729.34
2023-01-30T09:40:59.063Z,98728.66
2023-01-30T09:43:59.571Z,98731.16
2023-01-30T09:46:46.491Z,98711.06
2023-01-30T09:49:35.045Z,98712.06
2023-01-30T09:52:38.455Z,98706.81
2023-01-30T09:55:20.811Z,98701.75
2023-01-30T09:57:49.560Z,98690.56
2023-01-30T10:00:43.584Z,98682.75
2023-01-30T10:03:18.591Z,98697.34
2023-01-30T10:05:56.311Z,98687.75
2023-01-30T10:09:03.315Z,98694.31
2023-01-30T10:11:48.261Z,98688.97
2023-01-30T10:14:21.340Z,98685.38
2023-01-30T10:17:21.215Z,98679.75
2023-01-30T10:20:06.771Z,98683.22
2023-01-30T10:23:02.263Z,98674.81
2023-01-30T10:25:58.885Z,98683.97
2023-01-30T10:28:35.063Z,98686.41
2023-01-30T10:31:12.305Z,98676.59
2023-01-30T10:33:58.411Z,98678.38
2023-01-30T10:36:40.118Z,98684.06
2023-01-30T10:39:26.480Z,98677.13
2023-01-30T10:42:09.280Z,98669.94
2023-01-30T10:44:38.395Z,98665.88
2023-01-30T10:47:46.513Z,98666.09
2023-01-30T10:50:25.798Z,98663.97
2023-01-30T10:53:13.226Z,98666.03
2023-01-30T10:55:51.798Z,98646.72
2023-01-30T10:58:37.740Z,98656.91
2023-01-30T11:01:07.241Z,98680.50
2023-01-30T11:03:40.028Z,98667.31
2023-01-30T11:06:13.594Z,98664.84
2023-01-30T11:08:41.034Z,98676.34
2023-01-30T11:11:27.194Z,98666.38
2023-01-30T11:14:05.787Z,98665.59
2023-01-30T11:16:41.005Z,98667.53
2023-01-30T11:19:23.477Z,98656.22
2023-01-30T11:21:54.580Z,98651.25
2023-01-30T11:24:53.604Z,98655.97
2023-01-30T11:27:32.496Z,98649.78
2023-01-30T11:30:17.834Z,98645.66
2023-01-30T11:32:49.949Z,98654.56
2023-01-30T11:35:28.757Z,98640.44
2023-01-30T11:38:13.350Z,98643.41
2023-01-30T11:40:41.509Z,98633.16
2023-01-30T11:43:15.098Z,98649.31
2023-01-30T11:45:47.267Z,98643.34
2023-01-30T11:48:33.973Z,98644.94
2023-01-30T11:51:09.541Z,98636.41
2023-01-30T11:53:49.693Z,98623.75
2023-01-30T11:56:36.481Z,98610.91
2023-01-30T11:59:10.737Z,98607.09
2023-01-30T12:01:38.053Z,98600.38
2023-01-30T12:04:12.606Z,98593.22
2023-01-30T12:06:42.755Z,98590.78
2023-01-30T12:09:35.212Z,98580.72
2023-01-30T12:12:02.346Z,98582.06
2023-01-30T12:14:39.579Z,98580.28
2023-01-30T12:17:35.525Z,98573.78
2023-01-30T12:20:20.236Z,98580.47
2023-01-30T12:23:07.614Z,98582.22
2023-01-30T12:25:42.774Z,98571.84
2023-01-30T12:28:25.517Z,98582.47
2023-01-30T12:30:58.882Z,98586.19
2023-01-30T12:33:30.531Z,98586.84
2023-01-30T12:36:09.720Z,98577.16
2023-01-30T12:39:10.825Z,98573.56
2023-01-30T12:42:11.796Z,98587.06
2023-01-30T12:45:17.070Z,98584.91
2023-01-30T12:47:50.053Z,98588.09
2023-01-30T12:50:33.261Z,98598.88
2023-01-30T12:53:38.189Z,98594.16
2023-01-30T12:56:33.697Z,98583.41
2023-01-30T12:59:13.214Z,98589.31
2023-01-30T13:02:19.039Z,98586.56
2023-01-30T13:05:02.138Z,98588.09
2023-01-30T13:07:52.958Z,98586.22
2023-01-30T13:10:36.695Z,98596.66
2023-01-30T13:13:24.852Z,98581.44
2023-01-30T13:16:24.004Z,98586.34
2023-01-30T13:19:12.201Z,98570.56
2023-01-30T13:21:45.877Z,98578.25
2023-01-30T13:24:31.983Z,98580.59
2023-01-30T13:27:03.680Z,98600.38
2023-01-30T13:29:41.015Z,98604.75
2023-01-30T13:33:16.425Z,98618.72
2023-01-30T13:35:57.879Z,98615.25
2023-01-30T13:38:28.701Z,98642.84
2023-01-30T13:40:58.176Z,98647.97
2023-01-30T13:43:38.665Z,98651.41
2023-01-30T13:46:17.044Z,98658.72
2023-01-30T13:48:55.704Z,98657.63
2023-01-30T13:51:49.605Z,98665.31
2023-01-30T13:54:28.583Z,98691.84
2023-01-30T13:57:33.412Z,98674.56
2023-01-30T14:00:34.162Z,98681.50
2023-01-30T14:03:03.869Z,98679.63
2023-01-30T14:05:54.100Z,98666.72
2023-01-30T14:08:46.168Z,98685.16
2023-01-30T14:11:37.595Z,98692.13
2023-01-30T14:14:24.036Z,98688.75
2023-01-30T14:17:09.687Z,98689.59
2023-01-30T14:20:01.801Z,98694.16
2023-01-30T14:23:00.807Z,98690.81
2023-01-30T14:25:30.860Z,98695.19
2023-01-30T14:28:00.534Z,98679.63
2023-01-30T14:31:01.332Z,98695.34
2023-01-30T14:33:32.838Z,98694.03
2023-01-30T14:36:03.240Z,98689.38
2023-01-30T14:38:40.523Z,98697.88
2023-01-30T14:41:07.810Z,98697.03
2023-01-30T14:43:44.338Z,98705.44
2023-01-30T14:46:20.978Z,98708.81
2023-01-30T14:48:50.032Z,98706.97
2023-01-30T14:51:39.356Z,98715.03
2023-01-30T14:54:14.064Z,98716.59
2023-01-30T14:56:58.636Z,98737.28
2023-01-30T14:59:35.630Z,98740.81
2023-01-30T15:02:05.962Z,98746.03
2023-01-30T15:04:43.028Z,98744.34
2023-01-30T15:07:32.406Z,98746.66
2023-01-30T15:10:12.427Z,98740.59
2023-01-30T15:13:19.524Z,98753.75
2023-01-30T15:16:03.969Z,98750.31
2023-01-30T15:19:03.755Z,98762.84
2023-01-30T15:21:42.318Z,98762.78
2023-01-30T15:24:27.589Z,98763.84
2023-01-30T15:27:13.086Z,98756.72
2023-01-30T15:30:04.790Z,98759.31
2023-01-30T15:32:33.438Z,98771.53
2023-01-30T15:35:24.563Z,98776.09
2023-01-30T15:37:57.302Z,98772.84
2023-01-30T15:40:30.030Z,98774.91
2023-01-30T15:43:13.744Z,98773.94
2023-01-30T15:45:56.306Z,98780.81
2023-01-30T15:48:50.864Z,98786.03
2023-01-30T15:51:27.222Z,98793.88
2023-01-30T15:53:56.938Z,98804.38
2023-01-30T15:56:30.555Z,98793.06
2023-01-30T15:59:00.758Z,98799.84
2023-01-30T16:01:27.957Z,98805.34
2023-01-30T16:03:57.787Z,98797.44
2023-01-30T16:06:37.601Z,98807.88
2023-01-30T16:09:26.664Z,98808.63
2023-01-30T16:11:54.162Z,98820.81
2023-01-30T16:14:22.781Z,98827.81
2023-01-30T16:16:56.630Z,98833.88
2023-01-30T16:19:33.699Z,98834.78
2023-01-30T16:22:03.717Z,98826.09
2023-01-30T16:24:33.196Z,98834.78
2023-01-30T16:27:05.687Z,98848.63
2023-01-30T16:29:53.207Z,98852.09
2023-01-30T16:32:31.666Z,98870.38
2023-01-30T16:35:30.954Z,98866.66
2023-01-30T16:38:00.296Z,98873.91
2023-01-30T16:40:31.993Z,98877.31
2023-01-30T16:43:04.407Z,98880.72
2023-01-30T16:45:34.014Z,98875.47
2023-01-30T16:48:36.975Z,98878.94
2023-01-30T16:51:21.800Z,98870.13
2023-01-30T16:53:56.608Z,98869.38
2023-01-30T16:56:24.128Z,98875.47
2023-01-30T16:58:54.989Z,98880.72
2023-01-30T17:01:24.195Z,98876.47
2023-01-30T17:04:01.200Z,98876.50
2023-01-30T17:06:39.822Z,98885.94
2023-01-30T17:09:38.595Z,98886.59
2023-01-30T17:12:27.255Z,98879.00
2023-01-30T17:15:12.686Z,98888.81
2023-01-30T17:17:41.008Z,98889.78
2023-01-30T17:20:09.628Z,98889.63
2023-01-30T17:22:41.971Z,98898.19
2023-01-30T17:25:27.467Z,98906.91
2023-01-30T17:27:55.472Z,98919.22
2023-01-30T17:30:22.592Z,98926.97
2023-01-30T17:32:52.446Z,98931.22
2023-01-30T17:35:20.150Z,98936.53
2023-01-30T17:37:59.868Z,98938.34
2023-01-30T17:40:38.182Z,98950.72
2023-01-30T17:43:05.983Z,98957.50
2023-01-30T17:45:33.571Z,98971.53
2023-01-30T17:48:00.643Z,98965.44
2023-01-30T17:50:28.563Z,98960.44
2023-01-30T17:52:56.063Z,98968.13
2023-01-30T17:55:23.521Z,98967.25
2023-01-30T17:57:50.989Z,98976.53
2023-01-30T18:00:20.697Z,98974.81
2023-01-30T18:02:48.524Z,98975.97
2023-01-30T18:05:15.951Z,98977.81
2023-01-30T18:07:43.896Z,98980.28
2023-01-30T18:10:18.689Z,98977.72
2023-01-30T18:12:46.930Z,98979.38
2023-01-30T18:15:15.797Z,98991.41
2023-01-30T18:17:47.464Z,98993.28
2023-01-30T18:20:17.559Z,99000.22
2023-01-30T18:22:45.737Z,99003.72
2023-01-30T18:25:13.754Z,98999.28
2023-01-30T18:27:44.187Z,99006.16
2023-01-30T18:30:17.421Z,99011.38
2023-01-30T18:32:52.925Z,99015.13
2023-01-30T18:35:22.529Z,99017.75
2023-01-30T18:37:50.237Z,99018.38
2023-01-30T18:40:18.656Z,99020.84
2023-01-30T18:42:46.768Z,99027.94
2023-01-30T18:45:14.230Z,99027.84
2023-01-30T18:47:42.113Z,99033.06
2023-01-30T18:50:10.052Z,99033.75
2023-01-30T18:52:37.432Z,99028.53
2023-01-30T18:55:05.134Z,99035.69
2023-01-30T18:57:32.513Z,99043.22
2023-01-30T18:59:59.891Z,99050.34
2023-01-30T19:02:27.322Z,99048.53
2023-01-30T19:04:54.689Z,99053.00
2023-01-30T19:07:22.293Z,99049.19
2023-01-30T19:09:49.769Z,99054.53
2023-01-30T19:12:35.675Z,99058.19
2023-01-30T19:15:03.438Z,99060.63
2023-01-30T19:17:31.034Z,99049.19
2023-01-30T19:20:01.132Z,99059.81
2023-01-30T19:22:28.618Z,99067.66
2023-01-30T19:24:56.090Z,99064.88
2023-01-30T19:27:23.561Z,99075.25
2023-01-30T19:29:50.917Z,99074.34
2023-01-30T19:32:18.194Z,99085.69
2023-01-30T19:34:45.590Z,99082.25
2023-01-30T19:37:12.946Z,99080.53
2023-01-30T19:39:40.288Z,99086.75
2023-01-30T19:42:07.610Z,99091.00
2023-01-30T19:44:34.929Z,99082.03
2023-01-30T19:47:02.400Z,99078.66
2023-01-30T19:49:29.847Z,99091.72
2023-01-30T19:52:01.953Z,99098.75
2023-01-30T19:54:29.494Z,99097.75
2023-01-30T19:56:57.106Z,99097.91
2023-01-30T19:59:27.447Z,99099.72
2023-01-30T20:01:54.819Z,99108.44
2023-01-30T20:04:22.457Z,99106.78
2023-01-30T20:06:50.103Z,99112.63
2023-01-30T20:09:17.706Z,99116.16
2023-01-30T20:11:45.400Z,99111.66
2023-01-30T20:14:13.267Z,99112.63
2023-01-30T20:16:40.930Z,99118.63
2023-01-30T20:19:14.544Z,99116.19
2023-01-30T20:21:42.721Z,99125.06
2023-01-30T20:24:14.642Z,99131.06
2023-01-30T20:26:42.794Z,99120.91
2023-01-30T20:29:11.099Z,99125.16
2023-01-30T20:31:39.556Z,99118.19
2023-01-30T20:34:10.688Z,99119.84
2023-01-30T20:36:38.086Z,99124.28
2023-01-30T20:39:07.613Z,99129.41
2023-01-30T20:41:37.540Z,99135.72
2023-01-30T20:44:06.848Z,99133.06
2023-01-30T20:46:41.177Z,99135.72
2023-01-30T20:49:16.311Z,99139.09
2023-01-30T20:51:44.232Z,99139.88
2023-01-30T20:54:13.561Z,99139.16
2023-01-30T20:56:49.601Z,99133.91
2023-01-30T20:59:19.565Z,99138.47
2023-01-30T21:01:47.056Z,99143.44
2023-01-30T21:04:16.170Z,99138.22
2023-01-30T21:06:46.102Z,99136.56
2023-01-30T21:09:22.137Z,99134.72
2023-01-30T21:11:51.072Z,99139.94
2023-01-30T21:14:18.749Z,99143.56
2023-01-30T21:16:46.559Z,99152.31
2023-01-30T21:19:16.561Z,99144.81
2023-01-30T21:21:50.445Z,99137.66
2023-01-30T21:24:20.956Z,99149.88
2023-01-30T21:26:48.831Z,99161.16
2023-01-30T21:29:18.972Z,99156.94
2023-01-30T21:31:46.678Z,99153.44
2023-01-30T21:34:14.478Z,99159.47
2023-01-30T21:36:41.932Z,99144.41
2023-01-30T21:39:32.283Z,99155.78
2023-01-30T21:42:19.309Z,99160.72
2023-01-30T21:44:47.415Z,99168.56
2023-01-30T21:47:14.732Z,99162.22
2023-01-30T21:49:43.976Z,99163.06
2023-01-30T21:52:12.232Z,99170.09
2023-01-30T21:54:40.042Z,99173.22
2023-01-30T21:57:07.448Z,99182.78
2023-01-30T21:59:35.098Z,99190.13
2023-01-30T22:02:02.508Z,99188.91
2023-01-30T22:04:29.804Z,99185.59
2023-01-30T22:06:57.136Z,99191.94
2023-01-30T22:09:24.438Z,99188.50
2023-01-30T22:11:51.736Z,99194.72
2023-01-30T22:14:19.011Z,99194.84
2023-01-30T22:16:46.355Z,99193.16
2023-01-30T22:19:14.318Z,99199.22
2023-01-30T22:21:41.742Z,99199.09
2023-01-30T22:24:11.657Z,99203.47
2023-01-30T22:26:39.613Z,99208.97
2023-01-30T22:29:07.384Z,99205.28
2023-01-30T22:31:36.729Z,99196.03
2023-01-30T22:34:04.753Z,99193.66
2023-01-30T22:36:34.805Z,99192.69
2023-01-30T22:39:03.235Z,99187.31
2023-01-30T22:41:37.228Z,99199.69
2023-01-30T22:44:07.651Z,99198.97
2023-01-30T22:46:37.484Z,99197.16
2023-01-30T22:49:06.867Z,99197.94
2023-01-30T22:51:39.805Z,99197.22
2023-01-30T22:54:10.427Z,99201.84
2023-01-30T22:56:40.763Z,99206.19
2023-01-30T22:59:08.676Z,99209.75
2023-01-30T23:01:41.675Z,99200.22
2023-01-30T23:04:20.418Z,99206.16
2023-01-30T23:06:48.649Z,99203.50
2023-01-30T23:09:19.221Z,99207.25
2023-01-30T23:12:10.042Z,99207.94
2023-01-30T23:14:38.165Z,99207.09
2023-01-30T23:17:26.755Z,99218.63
2023-01-30T23:19:54.920Z,99223.06
2023-01-30T23:22:22.411Z,99224.84
2023-01-30T23:24:51.163Z,99220.41
2023-01-30T23:27:19.433Z,99224.13
2023-01-30T23:29:46.968Z,99223.03
2023-01-30T23:32:14.980Z,99219.34
2023-01-30T23:34:42.497Z,99218.50
2023-01-30T23:37:09.918Z,99215.88
2023-01-30T23:39:37.666Z,99209.81
2023-01-30T23:42:05.028Z,99215.34
2023-01-30T23:44:32.428Z,99217.53
2023-01-30T23:46:59.757Z,99213.41
2023-01-30T23:49:27.142Z,99210.44
2023-01-30T23:51:54.505Z,99213.16
2023-01-30T23:54:21.879Z,99204.66
2023-01-30T23:56:49.189Z,99193.81
2023-01-30T23:59:16.848Z,99200.69
